Flinders Reef, Australia
Current Conditions -  °F | °C
As of 12:00 AM on Saturday 20 Dec 2014 (Local Time) from YBTL Reporting Station
Rain Showers Rain Showers  
Wind Chill: 79°   Ceiling: 11000
Heat Index: 82°   Visibility: 6mi
Dew Point: 75°   Wind: 6mph
Humidity: 89%   Direction: 40°NE
Pressure: 29.85"   Gusts: NA
Location:  17.72°S, 148.43°E
Report Text: YBTL 191400Z AUTO 04005KT 9999 -SHRA SCT017 SCT030 BKN110 26/24 Q1011 RESHRA
Loading
Personal Weather Stations






























Interactive Weather Map New forecast layout! Learn more

10-Day Weather Forecast

Advertisements
Track Severe Weather on mobile